sensor_id;sensor_type;location;lat;lon;timestamp;P1;durP1;ratioP1;P2;durP2;ratioP2
6414;SDS011;3240;48.790;9.210;2022-07-17T00:02:09;10.77;;;4.93;;
6414;SDS011;3240;48.790;9.210;2022-07-17T00:04:38;10.90;;;5.57;;
6414;SDS011;3240;48.790;9.210;2022-07-17T00:07:06;5.83;;;4.60;;
6414;SDS011;3240;48.790;9.210;2022-07-17T00:09:34;7.90;;;4.83;;
6414;SDS011;3240;48.790;9.210;2022-07-17T00:12:03;13.60;;;5.00;;
6414;SDS011;3240;48.790;9.210;2022-07-17T00:14:31;8.47;;;5.30;;
6414;SDS011;3240;48.790;9.210;2022-07-17T00:17:00;9.10;;;5.60;;
6414;SDS011;3240;48.790;9.210;2022-07-17T00:19:28;7.77;;;4.73;;
6414;SDS011;3240;48.790;9.210;2022-07-17T00:21:56;7.90;;;4.60;;
6414;SDS011;3240;48.790;9.210;2022-07-17T00:24:25;7.60;;;4.90;;
6414;SDS011;3240;48.790;9.210;2022-07-17T00:26:53;9.40;;;4.40;;
6414;SDS011;3240;48.790;9.210;2022-07-17T00:29:21;6.40;;;4.27;;
6414;SDS011;3240;48.790;9.210;2022-07-17T00:31:50;5.50;;;4.70;;
6414;SDS011;3240;48.790;9.210;2022-07-17T00:34:18;7.30;;;4.73;;
6414;SDS011;3240;48.790;9.210;2022-07-17T00:36:46;6.67;;;4.57;;
6414;SDS011;3240;48.790;9.210;2022-07-17T00:39:15;6.73;;;4.70;;
6414;SDS011;3240;48.790;9.210;2022-07-17T00:41:43;6.57;;;3.80;;
6414;SDS011;3240;48.790;9.210;2022-07-17T00:44:12;9.80;;;4.17;;
6414;SDS011;3240;48.790;9.210;2022-07-17T00:46:41;6.30;;;4.53;;
6414;SDS011;3240;48.790;9.210;2022-07-17T00:49:09;6.67;;;4.00;;
6414;SDS011;3240;48.790;9.210;2022-07-17T00:51:37;11.93;;;4.73;;
6414;SDS011;3240;48.790;9.210;2022-07-17T00:54:06;5.77;;;3.83;;
6414;SDS011;3240;48.790;9.210;2022-07-17T00:56:34;7.70;;;3.90;;
6414;SDS011;3240;48.790;9.210;2022-07-17T00:59:02;8.73;;;3.57;;
6414;SDS011;3240;48.790;9.210;2022-07-17T01:01:31;5.60;;;3.57;;
6414;SDS011;3240;48.790;9.210;2022-07-17T01:03:59;7.27;;;3.57;;
6414;SDS011;3240;48.790;9.210;2022-07-17T01:06:27;5.90;;;3.97;;
6414;SDS011;3240;48.790;9.210;2022-07-17T01:08:56;6.83;;;3.83;;
6414;SDS011;3240;48.790;9.210;2022-07-17T01:11:24;5.30;;;3.70;;
6414;SDS011;3240;48.790;9.210;2022-07-17T01:13:52;7.90;;;4.27;;
6414;SDS011;3240;48.790;9.210;2022-07-17T01:16:20;9.33;;;4.50;;
6414;SDS011;3240;48.790;9.210;2022-07-17T01:18:49;4.17;;;3.57;;
6414;SDS011;3240;48.790;9.210;2022-07-17T01:21:17;8.97;;;4.17;;
6414;SDS011;3240;48.790;9.210;2022-07-17T01:23:45;10.30;;;4.57;;
6414;SDS011;3240;48.790;9.210;2022-07-17T01:26:14;9.07;;;4.33;;
6414;SDS011;3240;48.790;9.210;2022-07-17T01:28:42;6.87;;;4.00;;
6414;SDS011;3240;48.790;9.210;2022-07-17T01:31:10;6.50;;;4.40;;
6414;SDS011;3240;48.790;9.210;2022-07-17T01:33:39;10.17;;;4.00;;
6414;SDS011;3240;48.790;9.210;2022-07-17T01:36:07;3.80;;;3.33;;
6414;SDS011;3240;48.790;9.210;2022-07-17T01:38:35;9.30;;;4.23;;
6414;SDS011;3240;48.790;9.210;2022-07-17T01:41:04;5.73;;;3.90;;
6414;SDS011;3240;48.790;9.210;2022-07-17T01:43:32;10.43;;;4.00;;
6414;SDS011;3240;48.790;9.210;2022-07-17T01:46:00;13.20;;;4.40;;
6414;SDS011;3240;48.790;9.210;2022-07-17T01:48:29;4.67;;;3.87;;
6414;SDS011;3240;48.790;9.210;2022-07-17T01:50:57;8.00;;;3.83;;
6414;SDS011;3240;48.790;9.210;2022-07-17T01:53:26;6.67;;;4.43;;
6414;SDS011;3240;48.790;9.210;2022-07-17T01:55:54;9.20;;;4.20;;
6414;SDS011;3240;48.790;9.210;2022-07-17T01:58:22;8.43;;;4.80;;
6414;SDS011;3240;48.790;9.210;2022-07-17T02:00:51;10.53;;;4.87;;
6414;SDS011;3240;48.790;9.210;2022-07-17T02:03:19;7.37;;;5.27;;
6414;SDS011;3240;48.790;9.210;2022-07-17T02:05:47;10.10;;;5.20;;
6414;SDS011;3240;48.790;9.210;2022-07-17T02:08:15;7.77;;;5.10;;
6414;SDS011;3240;48.790;9.210;2022-07-17T02:10:44;6.83;;;5.33;;
6414;SDS011;3240;48.790;9.210;2022-07-17T02:13:12;8.63;;;5.10;;
6414;SDS011;3240;48.790;9.210;2022-07-17T02:15:40;6.73;;;4.83;;
6414;SDS011;3240;48.790;9.210;2022-07-17T02:18:09;10.77;;;5.33;;
6414;SDS011;3240;48.790;9.210;2022-07-17T02:20:37;8.60;;;5.10;;
6414;SDS011;3240;48.790;9.210;2022-07-17T02:23:05;8.93;;;5.17;;
6414;SDS011;3240;48.790;9.210;2022-07-17T02:25:34;8.23;;;5.40;;
6414;SDS011;3240;48.790;9.210;2022-07-17T02:28:02;5.50;;;4.90;;
6414;SDS011;3240;48.790;9.210;2022-07-17T02:30:30;8.67;;;5.10;;
6414;SDS011;3240;48.790;9.210;2022-07-17T02:32:59;8.20;;;5.50;;
6414;SDS011;3240;48.790;9.210;2022-07-17T02:35:27;10.53;;;4.77;;
6414;SDS011;3240;48.790;9.210;2022-07-17T02:37:55;8.20;;;5.10;;
6414;SDS011;3240;48.790;9.210;2022-07-17T02:40:24;7.80;;;5.30;;
6414;SDS011;3240;48.790;9.210;2022-07-17T02:42:52;8.40;;;4.87;;
6414;SDS011;3240;48.790;9.210;2022-07-17T02:45:20;8.00;;;5.33;;
6414;SDS011;3240;48.790;9.210;2022-07-17T02:47:49;12.20;;;7.00;;
6414;SDS011;3240;48.790;9.210;2022-07-17T02:50:17;10.80;;;7.10;;
6414;SDS011;3240;48.790;9.210;2022-07-17T02:52:46;7.77;;;5.20;;
6414;SDS011;3240;48.790;9.210;2022-07-17T02:55:14;7.57;;;5.50;;
6414;SDS011;3240;48.790;9.210;2022-07-17T02:57:42;9.05;;;5.53;;
6414;SDS011;3240;48.790;9.210;2022-07-17T03:00:11;9.10;;;5.80;;
6414;SDS011;3240;48.790;9.210;2022-07-17T03:02:39;13.77;;;5.80;;
6414;SDS011;3240;48.790;9.210;2022-07-17T03:05:08;8.50;;;4.80;;
6414;SDS011;3240;48.790;9.210;2022-07-17T03:07:36;8.70;;;5.63;;
6414;SDS011;3240;48.790;9.210;2022-07-17T03:10:05;7.40;;;5.00;;
6414;SDS011;3240;48.790;9.210;2022-07-17T03:12:33;6.77;;;5.10;;
6414;SDS011;3240;48.790;9.210;2022-07-17T03:15:02;9.25;;;5.60;;
6414;SDS011;3240;48.790;9.210;2022-07-17T03:17:30;9.30;;;5.60;;
6414;SDS011;3240;48.790;9.210;2022-07-17T03:19:58;7.13;;;5.43;;
6414;SDS011;3240;48.790;9.210;2022-07-17T03:22:26;6.43;;;5.00;;
6414;SDS011;3240;48.790;9.210;2022-07-17T03:24:55;9.27;;;5.53;;
6414;SDS011;3240;48.790;9.210;2022-07-17T03:27:23;10.97;;;5.57;;
6414;SDS011;3240;48.790;9.210;2022-07-17T03:29:52;8.23;;;5.27;;
6414;SDS011;3240;48.790;9.210;2022-07-17T03:32:20;11.13;;;5.57;;
6414;SDS011;3240;48.790;9.210;2022-07-17T03:34:49;7.23;;;5.33;;
6414;SDS011;3240;48.790;9.210;2022-07-17T03:37:17;6.80;;;5.00;;
6414;SDS011;3240;48.790;9.210;2022-07-17T03:39:45;8.63;;;5.57;;
6414;SDS011;3240;48.790;9.210;2022-07-17T03:42:14;12.03;;;6.03;;
6414;SDS011;3240;48.790;9.210;2022-07-17T03:44:42;8.47;;;5.60;;
6414;SDS011;3240;48.790;9.210;2022-07-17T03:47:10;12.20;;;5.80;;
6414;SDS011;3240;48.790;9.210;2022-07-17T03:49:39;7.50;;;4.93;;
6414;SDS011;3240;48.790;9.210;2022-07-17T03:52:07;7.20;;;5.40;;
6414;SDS011;3240;48.790;9.210;2022-07-17T03:54:35;6.57;;;4.80;;
6414;SDS011;3240;48.790;9.210;2022-07-17T03:57:04;9.33;;;5.10;;
6414;SDS011;3240;48.790;9.210;2022-07-17T03:59:32;7.83;;;5.13;;
6414;SDS011;3240;48.790;9.210;2022-07-17T04:02:00;8.43;;;4.97;;
6414;SDS011;3240;48.790;9.210;2022-07-17T04:04:29;8.03;;;5.20;;
6414;SDS011;3240;48.790;9.210;2022-07-17T04:06:57;8.60;;;4.50;;
6414;SDS011;3240;48.790;9.210;2022-07-17T04:09:25;6.73;;;4.40;;
6414;SDS011;3240;48.790;9.210;2022-07-17T04:11:53;7.10;;;5.30;;
6414;SDS011;3240;48.790;9.210;2022-07-17T04:14:22;6.80;;;4.87;;
6414;SDS011;3240;48.790;9.210;2022-07-17T04:16:50;6.43;;;4.40;;
6414;SDS011;3240;48.790;9.210;2022-07-17T04:19:18;7.50;;;4.70;;
6414;SDS011;3240;48.790;9.210;2022-07-17T04:21:47;8.33;;;4.83;;
6414;SDS011;3240;48.790;9.210;2022-07-17T04:24:15;6.80;;;4.83;;
6414;SDS011;3240;48.790;9.210;2022-07-17T04:26:43;8.03;;;4.67;;
6414;SDS011;3240;48.790;9.210;2022-07-17T04:29:12;6.50;;;4.87;;
6414;SDS011;3240;48.790;9.210;2022-07-17T04:31:40;7.30;;;4.50;;
6414;SDS011;3240;48.790;9.210;2022-07-17T04:34:09;6.30;;;4.70;;
6414;SDS011;3240;48.790;9.210;2022-07-17T04:36:37;8.10;;;4.20;;
6414;SDS011;3240;48.790;9.210;2022-07-17T04:39:05;8.27;;;5.27;;
6414;SDS011;3240;48.790;9.210;2022-07-17T04:41:34;8.10;;;5.03;;
6414;SDS011;3240;48.790;9.210;2022-07-17T04:44:02;5.93;;;4.90;;
6414;SDS011;3240;48.790;9.210;2022-07-17T04:46:30;10.20;;;4.83;;
6414;SDS011;3240;48.790;9.210;2022-07-17T04:48:59;8.33;;;4.80;;
6414;SDS011;3240;48.790;9.210;2022-07-17T04:51:27;7.33;;;5.10;;
6414;SDS011;3240;48.790;9.210;2022-07-17T04:53:55;8.53;;;5.03;;
6414;SDS011;3240;48.790;9.210;2022-07-17T04:56:24;6.90;;;5.20;;
6414;SDS011;3240;48.790;9.210;2022-07-17T04:58:52;7.17;;;5.30;;
6414;SDS011;3240;48.790;9.210;2022-07-17T05:01:20;5.97;;;5.17;;
6414;SDS011;3240;48.790;9.210;2022-07-17T05:03:49;7.30;;;5.03;;
6414;SDS011;3240;48.790;9.210;2022-07-17T05:06:17;7.23;;;4.70;;
6414;SDS011;3240;48.790;9.210;2022-07-17T05:08:45;6.30;;;5.20;;
6414;SDS011;3240;48.790;9.210;2022-07-17T05:11:14;6.53;;;4.90;;
6414;SDS011;3240;48.790;9.210;2022-07-17T05:13:42;8.07;;;5.75;;
6414;SDS011;3240;48.790;9.210;2022-07-17T05:16:10;8.33;;;5.03;;
6414;SDS011;3240;48.790;9.210;2022-07-17T05:18:39;8.00;;;5.90;;
6414;SDS011;3240;48.790;9.210;2022-07-17T05:21:07;15.73;;;4.97;;
6414;SDS011;3240;48.790;9.210;2022-07-17T05:23:35;5.47;;;4.93;;
6414;SDS011;3240;48.790;9.210;2022-07-17T05:26:04;7.10;;;5.30;;
6414;SDS011;3240;48.790;9.210;2022-07-17T05:28:32;6.37;;;5.50;;
6414;SDS011;3240;48.790;9.210;2022-07-17T05:31:00;8.70;;;5.43;;
6414;SDS011;3240;48.790;9.210;2022-07-17T05:33:29;7.53;;;5.30;;
6414;SDS011;3240;48.790;9.210;2022-07-17T05:35:57;8.40;;;5.27;;
6414;SDS011;3240;48.790;9.210;2022-07-17T05:38:25;7.10;;;5.10;;
6414;SDS011;3240;48.790;9.210;2022-07-17T05:40:54;9.83;;;5.37;;
6414;SDS011;3240;48.790;9.210;2022-07-17T05:43:22;7.80;;;5.87;;
6414;SDS011;3240;48.790;9.210;2022-07-17T05:45:53;8.50;;;5.90;;
6414;SDS011;3240;48.790;9.210;2022-07-17T05:48:19;8.50;;;5.43;;
6414;SDS011;3240;48.790;9.210;2022-07-17T05:50:47;6.30;;;5.47;;
6414;SDS011;3240;48.790;9.210;2022-07-17T05:53:15;8.90;;;5.37;;
6414;SDS011;3240;48.790;9.210;2022-07-17T05:55:44;7.57;;;5.70;;
6414;SDS011;3240;48.790;9.210;2022-07-17T05:58:12;7.03;;;5.30;;
6414;SDS011;3240;48.790;9.210;2022-07-17T06:00:40;8.87;;;5.90;;
6414;SDS011;3240;48.790;9.210;2022-07-17T06:03:09;10.43;;;6.07;;
6414;SDS011;3240;48.790;9.210;2022-07-17T06:05:37;6.90;;;4.83;;
6414;SDS011;3240;48.790;9.210;2022-07-17T06:08:05;7.47;;;5.80;;
6414;SDS011;3240;48.790;9.210;2022-07-17T06:10:34;8.43;;;6.07;;
6414;SDS011;3240;48.790;9.210;2022-07-17T06:13:02;10.43;;;5.20;;
6414;SDS011;3240;48.790;9.210;2022-07-17T06:15:30;10.57;;;5.10;;
6414;SDS011;3240;48.790;9.210;2022-07-17T06:18:00;7.97;;;4.93;;
6414;SDS011;3240;48.790;9.210;2022-07-17T06:20:28;19.13;;;5.47;;
6414;SDS011;3240;48.790;9.210;2022-07-17T06:22:56;6.93;;;5.10;;
6414;SDS011;3240;48.790;9.210;2022-07-17T06:25:24;9.47;;;5.03;;
6414;SDS011;3240;48.790;9.210;2022-07-17T06:27:53;6.03;;;5.30;;
6414;SDS011;3240;48.790;9.210;2022-07-17T06:30:22;7.70;;;4.90;;
6414;SDS011;3240;48.790;9.210;2022-07-17T06:32:50;6.27;;;5.03;;
6414;SDS011;3240;48.790;9.210;2022-07-17T06:35:18;7.93;;;5.60;;
6414;SDS011;3240;48.790;9.210;2022-07-17T06:37:47;7.43;;;4.73;;
6414;SDS011;3240;48.790;9.210;2022-07-17T06:40:15;6.27;;;5.40;;
6414;SDS011;3240;48.790;9.210;2022-07-17T06:42:43;9.10;;;5.20;;
6414;SDS011;3240;48.790;9.210;2022-07-17T06:45:12;7.73;;;5.40;;
6414;SDS011;3240;48.790;9.210;2022-07-17T06:47:40;5.30;;;4.27;;
6414;SDS011;3240;48.790;9.210;2022-07-17T06:50:08;7.70;;;4.23;;
6414;SDS011;3240;48.790;9.210;2022-07-17T06:52:37;4.50;;;3.80;;
6414;SDS011;3240;48.790;9.210;2022-07-17T06:55:05;4.37;;;3.77;;
6414;SDS011;3240;48.790;9.210;2022-07-17T06:57:34;7.63;;;4.40;;
6414;SDS011;3240;48.790;9.210;2022-07-17T07:00:02;6.63;;;3.87;;
6414;SDS011;3240;48.790;9.210;2022-07-17T07:02:30;5.53;;;3.97;;
6414;SDS011;3240;48.790;9.210;2022-07-17T07:04:59;4.23;;;3.63;;
6414;SDS011;3240;48.790;9.210;2022-07-17T07:07:27;6.00;;;4.30;;
6414;SDS011;3240;48.790;9.210;2022-07-17T07:09:55;5.00;;;4.18;;
6414;SDS011;3240;48.790;9.210;2022-07-17T07:12:24;4.30;;;3.53;;
6414;SDS011;3240;48.790;9.210;2022-07-17T07:14:52;5.90;;;3.60;;
6414;SDS011;3240;48.790;9.210;2022-07-17T07:17:20;3.83;;;3.50;;
6414;SDS011;3240;48.790;9.210;2022-07-17T07:19:49;4.17;;;3.00;;
6414;SDS011;3240;48.790;9.210;2022-07-17T07:22:17;4.00;;;3.20;;
6414;SDS011;3240;48.790;9.210;2022-07-17T07:24:45;3.33;;;2.90;;
6414;SDS011;3240;48.790;9.210;2022-07-17T07:27:14;4.47;;;3.20;;
6414;SDS011;3240;48.790;9.210;2022-07-17T07:29:42;4.40;;;3.17;;
6414;SDS011;3240;48.790;9.210;2022-07-17T07:32:10;3.70;;;3.17;;
6414;SDS011;3240;48.790;9.210;2022-07-17T07:34:39;6.93;;;3.50;;
6414;SDS011;3240;48.790;9.210;2022-07-17T07:37:07;4.90;;;3.63;;
6414;SDS011;3240;48.790;9.210;2022-07-17T07:39:35;4.50;;;3.40;;
6414;SDS011;3240;48.790;9.210;2022-07-17T07:42:04;4.73;;;3.60;;
6414;SDS011;3240;48.790;9.210;2022-07-17T07:44:32;6.07;;;3.10;;
6414;SDS011;3240;48.790;9.210;2022-07-17T07:47:00;4.07;;;3.27;;
6414;SDS011;3240;48.790;9.210;2022-07-17T07:49:29;4.10;;;3.03;;
6414;SDS011;3240;48.790;9.210;2022-07-17T07:51:57;4.10;;;3.00;;
6414;SDS011;3240;48.790;9.210;2022-07-17T07:54:25;3.90;;;2.90;;
6414;SDS011;3240;48.790;9.210;2022-07-17T07:56:54;5.83;;;2.50;;
6414;SDS011;3240;48.790;9.210;2022-07-17T07:59:22;3.70;;;2.53;;
6414;SDS011;3240;48.790;9.210;2022-07-17T08:01:50;6.43;;;2.63;;
6414;SDS011;3240;48.790;9.210;2022-07-17T08:04:19;2.50;;;2.10;;
6414;SDS011;3240;48.790;9.210;2022-07-17T08:06:47;6.30;;;2.53;;
6414;SDS011;3240;48.790;9.210;2022-07-17T08:09:15;3.20;;;2.60;;
6414;SDS011;3240;48.790;9.210;2022-07-17T08:11:44;8.80;;;3.13;;
6414;SDS011;3240;48.790;9.210;2022-07-17T08:14:12;2.97;;;2.30;;
6414;SDS011;3240;48.790;9.210;2022-07-17T08:16:40;5.43;;;2.40;;
6414;SDS011;3240;48.790;9.210;2022-07-17T08:19:09;4.43;;;2.40;;
6414;SDS011;3240;48.790;9.210;2022-07-17T08:21:37;2.80;;;2.30;;
6414;SDS011;3240;48.790;9.210;2022-07-17T08:24:05;2.90;;;2.20;;
6414;SDS011;3240;48.790;9.210;2022-07-17T08:26:34;4.70;;;2.70;;
6414;SDS011;3240;48.790;9.210;2022-07-17T08:29:02;4.23;;;2.43;;
6414;SDS011;3240;48.790;9.210;2022-07-17T08:31:30;2.83;;;2.53;;
6414;SDS011;3240;48.790;9.210;2022-07-17T08:33:59;2.83;;;2.50;;
6414;SDS011;3240;48.790;9.210;2022-07-17T08:36:27;4.90;;;2.63;;
6414;SDS011;3240;48.790;9.210;2022-07-17T08:38:55;3.03;;;2.40;;
6414;SDS011;3240;48.790;9.210;2022-07-17T08:41:24;3.23;;;2.60;;
6414;SDS011;3240;48.790;9.210;2022-07-17T08:43:52;3.33;;;2.63;;
6414;SDS011;3240;48.790;9.210;2022-07-17T08:46:23;3.47;;;2.73;;
6414;SDS011;3240;48.790;9.210;2022-07-17T08:48:49;2.67;;;2.23;;
6414;SDS011;3240;48.790;9.210;2022-07-17T08:51:17;2.27;;;1.90;;
6414;SDS011;3240;48.790;9.210;2022-07-17T08:53:45;3.33;;;2.47;;
6414;SDS011;3240;48.790;9.210;2022-07-17T08:56:14;4.20;;;2.63;;
6414;SDS011;3240;48.790;9.210;2022-07-17T08:58:42;3.93;;;2.63;;
6414;SDS011;3240;48.790;9.210;2022-07-17T09:01:11;2.47;;;2.27;;
6414;SDS011;3240;48.790;9.210;2022-07-17T09:03:39;2.73;;;2.33;;
6414;SDS011;3240;48.790;9.210;2022-07-17T09:08:41;3.95;;;2.80;;
6414;SDS011;3240;48.790;9.210;2022-07-17T09:11:10;2.67;;;2.17;;
6414;SDS011;3240;48.790;9.210;2022-07-17T09:13:41;2.77;;;2.47;;
6414;SDS011;3240;48.790;9.210;2022-07-17T09:16:08;3.13;;;2.30;;
6414;SDS011;3240;48.790;9.210;2022-07-17T09:21:16;3.30;;;2.37;;
6414;SDS011;3240;48.790;9.210;2022-07-17T09:23:38;2.67;;;2.23;;
6414;SDS011;3240;48.790;9.210;2022-07-17T09:26:07;3.53;;;2.27;;
6414;SDS011;3240;48.790;9.210;2022-07-17T09:28:44;3.50;;;2.40;;
6414;SDS011;3240;48.790;9.210;2022-07-17T09:31:03;3.00;;;2.50;;
6414;SDS011;3240;48.790;9.210;2022-07-17T09:33:33;2.67;;;2.30;;
6414;SDS011;3240;48.790;9.210;2022-07-17T09:36:07;2.60;;;2.40;;
6414;SDS011;3240;48.790;9.210;2022-07-17T09:38:36;1.93;;;1.67;;
6414;SDS011;3240;48.790;9.210;2022-07-17T09:41:12;3.57;;;1.77;;
6414;SDS011;3240;48.790;9.210;2022-07-17T09:43:42;2.27;;;2.07;;
6414;SDS011;3240;48.790;9.210;2022-07-17T09:46:10;1.80;;;1.70;;
6414;SDS011;3240;48.790;9.210;2022-07-17T09:48:41;2.60;;;1.73;;
6414;SDS011;3240;48.790;9.210;2022-07-17T09:51:06;2.70;;;1.70;;
6414;SDS011;3240;48.790;9.210;2022-07-17T09:53:35;5.43;;;2.13;;
6414;SDS011;3240;48.790;9.210;2022-07-17T09:56:03;2.20;;;1.50;;
6414;SDS011;3240;48.790;9.210;2022-07-17T09:58:31;2.60;;;1.90;;
6414;SDS011;3240;48.790;9.210;2022-07-17T10:01:00;1.80;;;1.53;;
6414;SDS011;3240;48.790;9.210;2022-07-17T10:03:28;3.57;;;1.97;;
6414;SDS011;3240;48.790;9.210;2022-07-17T10:05:56;5.30;;;2.00;;
6414;SDS011;3240;48.790;9.210;2022-07-17T10:08:24;4.17;;;1.60;;
6414;SDS011;3240;48.790;9.210;2022-07-17T10:10:53;2.50;;;2.17;;
6414;SDS011;3240;48.790;9.210;2022-07-17T10:13:21;2.80;;;1.57;;
6414;SDS011;3240;48.790;9.210;2022-07-17T10:15:50;2.23;;;1.83;;
6414;SDS011;3240;48.790;9.210;2022-07-17T10:18:20;1.77;;;1.60;;
6414;SDS011;3240;48.790;9.210;2022-07-17T10:20:46;1.73;;;1.57;;
6414;SDS011;3240;48.790;9.210;2022-07-17T10:23:14;3.37;;;1.63;;
6414;SDS011;3240;48.790;9.210;2022-07-17T10:25:43;1.93;;;1.83;;
6414;SDS011;3240;48.790;9.210;2022-07-17T10:28:11;1.60;;;1.47;;
6414;SDS011;3240;48.790;9.210;2022-07-17T10:30:41;3.20;;;1.60;;
6414;SDS011;3240;48.790;9.210;2022-07-17T10:33:08;2.10;;;1.77;;
6414;SDS011;3240;48.790;9.210;2022-07-17T10:35:42;3.03;;;1.90;;
6414;SDS011;3240;48.790;9.210;2022-07-17T10:38:10;2.70;;;2.33;;
6414;SDS011;3240;48.790;9.210;2022-07-17T10:40:38;1.63;;;1.50;;
6414;SDS011;3240;48.790;9.210;2022-07-17T10:43:06;3.27;;;1.90;;
6414;SDS011;3240;48.790;9.210;2022-07-17T10:45:35;2.50;;;1.87;;
6414;SDS011;3240;48.790;9.210;2022-07-17T10:48:05;2.60;;;1.60;;
6414;SDS011;3240;48.790;9.210;2022-07-17T10:50:36;2.60;;;1.87;;
6414;SDS011;3240;48.790;9.210;2022-07-17T10:53:04;2.87;;;1.90;;
6414;SDS011;3240;48.790;9.210;2022-07-17T10:55:32;3.40;;;1.87;;
6414;SDS011;3240;48.790;9.210;2022-07-17T10:58:00;1.90;;;1.70;;
6414;SDS011;3240;48.790;9.210;2022-07-17T11:00:28;3.07;;;1.77;;
6414;SDS011;3240;48.790;9.210;2022-07-17T11:02:56;1.57;;;1.47;;
6414;SDS011;3240;48.790;9.210;2022-07-17T11:05:25;2.53;;;1.90;;
6414;SDS011;3240;48.790;9.210;2022-07-17T11:07:55;7.27;;;1.83;;
6414;SDS011;3240;48.790;9.210;2022-07-17T11:10:23;2.07;;;1.60;;
6414;SDS011;3240;48.790;9.210;2022-07-17T11:12:51;1.60;;;1.50;;
6414;SDS011;3240;48.790;9.210;2022-07-17T11:15:19;6.20;;;3.27;;
6414;SDS011;3240;48.790;9.210;2022-07-17T11:17:48;1.90;;;1.80;;
6414;SDS011;3240;48.790;9.210;2022-07-17T11:20:16;4.70;;;2.10;;
6414;SDS011;3240;48.790;9.210;2022-07-17T11:22:44;2.27;;;1.90;;
6414;SDS011;3240;48.790;9.210;2022-07-17T11:25:12;2.80;;;1.67;;
6414;SDS011;3240;48.790;9.210;2022-07-17T11:27:40;4.77;;;1.70;;
6414;SDS011;3240;48.790;9.210;2022-07-17T11:30:10;1.80;;;1.70;;
6414;SDS011;3240;48.790;9.210;2022-07-17T11:32:38;2.10;;;1.90;;
6414;SDS011;3240;48.790;9.210;2022-07-17T11:37:40;2.20;;;1.70;;
6414;SDS011;3240;48.790;9.210;2022-07-17T11:40:09;1.80;;;1.60;;
6414;SDS011;3240;48.790;9.210;2022-07-17T11:42:37;3.60;;;1.87;;
6414;SDS011;3240;48.790;9.210;2022-07-17T11:45:06;2.13;;;2.03;;
6414;SDS011;3240;48.790;9.210;2022-07-17T11:47:35;2.97;;;1.83;;
6414;SDS011;3240;48.790;9.210;2022-07-17T11:50:05;2.20;;;2.00;;
6414;SDS011;3240;48.790;9.210;2022-07-17T11:55:07;2.53;;;2.00;;
6414;SDS011;3240;48.790;9.210;2022-07-17T11:57:41;2.47;;;1.90;;
6414;SDS011;3240;48.790;9.210;2022-07-17T12:00:05;3.87;;;2.07;;
6414;SDS011;3240;48.790;9.210;2022-07-17T12:02:33;2.20;;;1.80;;
6414;SDS011;3240;48.790;9.210;2022-07-17T12:05:01;3.90;;;2.00;;
6414;SDS011;3240;48.790;9.210;2022-07-17T12:10:11;3.10;;;1.90;;
6414;SDS011;3240;48.790;9.210;2022-07-17T12:12:39;2.33;;;1.93;;
6414;SDS011;3240;48.790;9.210;2022-07-17T12:15:08;1.90;;;1.80;;
6414;SDS011;3240;48.790;9.210;2022-07-17T12:17:38;2.43;;;1.83;;
6414;SDS011;3240;48.790;9.210;2022-07-17T12:20:07;2.30;;;1.77;;
6414;SDS011;3240;48.790;9.210;2022-07-17T12:25:08;1.63;;;1.53;;
6414;SDS011;3240;48.790;9.210;2022-07-17T12:27:37;2.00;;;1.70;;
6414;SDS011;3240;48.790;9.210;2022-07-17T12:30:05;2.27;;;2.07;;
6414;SDS011;3240;48.790;9.210;2022-07-17T12:32:39;4.50;;;2.30;;
6414;SDS011;3240;48.790;9.210;2022-07-17T12:35:02;1.83;;;1.73;;
6414;SDS011;3240;48.790;9.210;2022-07-17T12:37:31;1.80;;;1.70;;
6414;SDS011;3240;48.790;9.210;2022-07-17T12:39:59;3.53;;;2.30;;
6414;SDS011;3240;48.790;9.210;2022-07-17T12:42:27;2.07;;;1.87;;
6414;SDS011;3240;48.790;9.210;2022-07-17T12:44:56;1.90;;;1.53;;
6414;SDS011;3240;48.790;9.210;2022-07-17T12:47:24;1.80;;;1.50;;
6414;SDS011;3240;48.790;9.210;2022-07-17T12:49:52;2.07;;;1.87;;
6414;SDS011;3240;48.790;9.210;2022-07-17T12:52:21;8.20;;;1.70;;
6414;SDS011;3240;48.790;9.210;2022-07-17T12:54:49;2.13;;;1.70;;
6414;SDS011;3240;48.790;9.210;2022-07-17T12:57:17;1.83;;;1.60;;
6414;SDS011;3240;48.790;9.210;2022-07-17T12:59:46;1.30;;;1.20;;
6414;SDS011;3240;48.790;9.210;2022-07-17T13:02:14;2.40;;;1.63;;
6414;SDS011;3240;48.790;9.210;2022-07-17T13:04:42;1.77;;;1.50;;
6414;SDS011;3240;48.790;9.210;2022-07-17T13:07:11;1.63;;;1.53;;
6414;SDS011;3240;48.790;9.210;2022-07-17T13:09:39;4.93;;;1.60;;
6414;SDS011;3240;48.790;9.210;2022-07-17T13:12:07;1.87;;;1.77;;
6414;SDS011;3240;48.790;9.210;2022-07-17T13:14:36;1.43;;;1.33;;
6414;SDS011;3240;48.790;9.210;2022-07-17T13:17:04;2.90;;;1.80;;
6414;SDS011;3240;48.790;9.210;2022-07-17T13:19:32;1.87;;;1.67;;
6414;SDS011;3240;48.790;9.210;2022-07-17T13:22:01;1.60;;;1.50;;
6414;SDS011;3240;48.790;9.210;2022-07-17T13:24:30;1.40;;;1.30;;
6414;SDS011;3240;48.790;9.210;2022-07-17T13:26:58;2.83;;;1.40;;
6414;SDS011;3240;48.790;9.210;2022-07-17T13:29:27;1.50;;;1.40;;
6414;SDS011;3240;48.790;9.210;2022-07-17T13:31:55;1.20;;;1.10;;
6414;SDS011;3240;48.790;9.210;2022-07-17T13:34:23;1.20;;;1.10;;
6414;SDS011;3240;48.790;9.210;2022-07-17T13:36:51;1.50;;;1.40;;
6414;SDS011;3240;48.790;9.210;2022-07-17T13:39:20;2.60;;;1.30;;
6414;SDS011;3240;48.790;9.210;2022-07-17T13:41:48;1.42;;;1.10;;
6414;SDS011;3240;48.790;9.210;2022-07-17T13:44:16;2.43;;;1.47;;
6414;SDS011;3240;48.790;9.210;2022-07-17T13:46:45;1.77;;;1.50;;
6414;SDS011;3240;48.790;9.210;2022-07-17T13:49:13;1.40;;;1.30;;
6414;SDS011;3240;48.790;9.210;2022-07-17T13:51:42;1.53;;;1.40;;
6414;SDS011;3240;48.790;9.210;2022-07-17T13:54:10;3.73;;;1.40;;
6414;SDS011;3240;48.790;9.210;2022-07-17T13:56:38;1.47;;;1.37;;
6414;SDS011;3240;48.790;9.210;2022-07-17T13:59:07;5.60;;;1.90;;
6414;SDS011;3240;48.790;9.210;2022-07-17T14:01:35;2.35;;;1.30;;
6414;SDS011;3240;48.790;9.210;2022-07-17T14:04:03;1.27;;;1.17;;
6414;SDS011;3240;48.790;9.210;2022-07-17T14:06:32;1.90;;;1.23;;
6414;SDS011;3240;48.790;9.210;2022-07-17T14:09:00;1.30;;;1.20;;
6414;SDS011;3240;48.790;9.210;2022-07-17T14:11:28;1.47;;;1.33;;
6414;SDS011;3240;48.790;9.210;2022-07-17T14:13:57;1.77;;;1.37;;
6414;SDS011;3240;48.790;9.210;2022-07-17T14:16:25;2.60;;;1.47;;
6414;SDS011;3240;48.790;9.210;2022-07-17T14:18:53;1.53;;;1.43;;
6414;SDS011;3240;48.790;9.210;2022-07-17T14:21:29;2.87;;;1.37;;
6414;SDS011;3240;48.790;9.210;2022-07-17T14:23:57;3.43;;;1.30;;
6414;SDS011;3240;48.790;9.210;2022-07-17T14:26:25;2.77;;;1.50;;
6414;SDS011;3240;48.790;9.210;2022-07-17T14:28:53;1.27;;;1.17;;
6414;SDS011;3240;48.790;9.210;2022-07-17T14:31:22;1.50;;;1.40;;
6414;SDS011;3240;48.790;9.210;2022-07-17T14:33:51;1.90;;;1.30;;
6414;SDS011;3240;48.790;9.210;2022-07-17T14:36:18;2.50;;;1.50;;
6414;SDS011;3240;48.790;9.210;2022-07-17T14:38:47;1.30;;;1.20;;
6414;SDS011;3240;48.790;9.210;2022-07-17T14:41:15;1.50;;;1.40;;
6414;SDS011;3240;48.790;9.210;2022-07-17T14:43:43;4.73;;;1.20;;
6414;SDS011;3240;48.790;9.210;2022-07-17T14:46:12;2.60;;;1.80;;
6414;SDS011;3240;48.790;9.210;2022-07-17T14:48:40;2.50;;;1.63;;
6414;SDS011;3240;48.790;9.210;2022-07-17T14:51:08;2.70;;;1.57;;
6414;SDS011;3240;48.790;9.210;2022-07-17T14:53:37;3.27;;;1.40;;
6414;SDS011;3240;48.790;9.210;2022-07-17T14:56:05;1.60;;;1.50;;
6414;SDS011;3240;48.790;9.210;2022-07-17T14:58:33;1.20;;;1.10;;
6414;SDS011;3240;48.790;9.210;2022-07-17T15:01:02;2.90;;;1.57;;
6414;SDS011;3240;48.790;9.210;2022-07-17T15:03:30;1.53;;;1.43;;
6414;SDS011;3240;48.790;9.210;2022-07-17T15:05:58;1.60;;;1.50;;
6414;SDS011;3240;48.790;9.210;2022-07-17T15:08:27;1.60;;;1.50;;
6414;SDS011;3240;48.790;9.210;2022-07-17T15:10:55;1.77;;;1.60;;
6414;SDS011;3240;48.790;9.210;2022-07-17T15:13:23;2.10;;;1.90;;
6414;SDS011;3240;48.790;9.210;2022-07-17T15:15:52;1.60;;;1.43;;
6414;SDS011;3240;48.790;9.210;2022-07-17T15:18:20;2.27;;;2.07;;
6414;SDS011;3240;48.790;9.210;2022-07-17T15:20:48;2.20;;;1.63;;
6414;SDS011;3240;48.790;9.210;2022-07-17T15:23:17;1.60;;;1.50;;
6414;SDS011;3240;48.790;9.210;2022-07-17T15:25:45;2.30;;;1.30;;
6414;SDS011;3240;48.790;9.210;2022-07-17T15:28:13;2.70;;;1.60;;
6414;SDS011;3240;48.790;9.210;2022-07-17T15:30:42;1.40;;;1.30;;
6414;SDS011;3240;48.790;9.210;2022-07-17T15:33:10;1.50;;;1.40;;
6414;SDS011;3240;48.790;9.210;2022-07-17T15:35:38;1.83;;;1.70;;
6414;SDS011;3240;48.790;9.210;2022-07-17T15:38:07;1.63;;;1.53;;